createdAt,value
2024-05-09T00:01:01.508Z,10.36
2024-05-09T00:03:48.564Z,10.35
2024-05-09T00:06:35.463Z,10.34
2024-05-09T00:09:22.886Z,10.35
2024-05-09T00:12:09.702Z,10.36
2024-05-09T00:14:57.238Z,10.37
2024-05-09T00:17:47.206Z,10.37
2024-05-09T00:20:38.990Z,10.35
2024-05-09T00:23:28.876Z,10.34
2024-05-09T00:26:19.088Z,10.35
2024-05-09T00:29:14.894Z,10.33
2024-05-09T00:32:02.125Z,10.28
2024-05-09T00:34:49.641Z,10.25
2024-05-09T00:37:36.498Z,10.23
2024-05-09T00:40:34.761Z,10.24
2024-05-09T00:43:29.165Z,10.26
2024-05-09T00:46:17.201Z,10.26
2024-05-09T00:49:05.214Z,10.26
2024-05-09T00:51:52.681Z,10.29
2024-05-09T00:54:42.752Z,10.28
2024-05-09T00:57:30.284Z,10.26
2024-05-09T01:00:26.607Z,10.22
2024-05-09T01:03:19.343Z,10.19
2024-05-09T01:06:07.321Z,10.17
2024-05-09T01:08:54.526Z,10.17
2024-05-09T01:11:42.008Z,10.17
2024-05-09T01:14:29.030Z,10.17
2024-05-09T01:17:16.212Z,10.19
2024-05-09T01:20:20.184Z,10.21
2024-05-09T01:23:15.866Z,10.19
2024-05-09T01:26:03.575Z,10.18
2024-05-09T01:28:50.522Z,10.17
2024-05-09T01:31:37.446Z,10.14
2024-05-09T01:34:25.597Z,10.12
2024-05-09T01:37:12.315Z,10.10
2024-05-09T01:39:59.328Z,10.11
2024-05-09T01:42:46.354Z,10.10
2024-05-09T01:45:33.991Z,10.10
2024-05-09T01:48:21.460Z,10.09
2024-05-09T01:51:08.922Z,10.07
2024-05-09T01:53:55.829Z,10.04
2024-05-09T01:56:42.742Z,10.05
2024-05-09T01:59:30.656Z,10.04
2024-05-09T02:02:17.978Z,10.03
2024-05-09T02:05:06.285Z,10.04
2024-05-09T02:07:53.546Z,10.06
2024-05-09T02:10:40.854Z,10.08
2024-05-09T02:13:27.721Z,10.08
2024-05-09T02:16:17.512Z,10.05
2024-05-09T02:19:04.735Z,10.03
2024-05-09T02:21:52.040Z,9.99
2024-05-09T02:24:38.635Z,9.97
2024-05-09T02:27:25.471Z,9.96
2024-05-09T02:30:18.975Z,9.94
2024-05-09T02:33:14.375Z,9.96
2024-05-09T02:36:01.871Z,9.96
2024-05-09T02:38:49.177Z,9.98
2024-05-09T02:41:45.726Z,9.99
2024-05-09T02:44:32.712Z,10.00
2024-05-09T02:47:20.275Z,10.01
2024-05-09T02:50:08.312Z,10.03
2024-05-09T02:52:55.350Z,10.02
2024-05-09T02:55:42.831Z,10.01
2024-05-09T02:58:32.635Z,10.02
2024-05-09T03:01:19.907Z,10.03
2024-05-09T03:04:07.235Z,10.08
2024-05-09T03:06:54.596Z,10.13
2024-05-09T03:09:46.732Z,10.17
2024-05-09T03:12:35.809Z,10.20
2024-05-09T03:15:23.830Z,10.22
2024-05-09T03:18:11.520Z,10.21
2024-05-09T03:20:59.254Z,10.18
2024-05-09T03:23:49.321Z,10.21
2024-05-09T03:26:36.217Z,10.24
2024-05-09T03:29:23.430Z,10.26
2024-05-09T03:32:21.945Z,10.29
2024-05-09T03:35:09.289Z,10.37
2024-05-09T03:37:56.045Z,10.46
2024-05-09T03:40:50.106Z,10.55
2024-05-09T03:43:38.046Z,10.63
2024-05-09T03:46:25.064Z,10.73
2024-05-09T03:49:12.695Z,10.82
2024-05-09T03:52:04.848Z,10.91
2024-05-09T03:54:52.355Z,10.99
2024-05-09T03:57:42.440Z,11.01
2024-05-09T04:00:36.941Z,11.04
2024-05-09T04:03:26.089Z,11.09
2024-05-09T04:06:20.267Z,11.14
2024-05-09T04:09:07.289Z,11.20
2024-05-09T04:11:54.699Z,11.28
2024-05-09T04:14:42.718Z,11.36
2024-05-09T04:17:30.262Z,11.46
2024-05-09T04:20:28.770Z,11.56
2024-05-09T04:23:23.189Z,11.67
2024-05-09T04:26:10.421Z,11.78
2024-05-09T04:28:58.322Z,11.88
2024-05-09T04:31:45.057Z,11.93
2024-05-09T04:34:34.036Z,11.99
2024-05-09T04:37:25.206Z,12.05
2024-05-09T04:40:23.982Z,12.11
2024-05-09T04:43:19.398Z,12.19
2024-05-09T04:46:06.848Z,12.24
2024-05-09T04:48:54.065Z,12.30
2024-05-09T04:51:41.577Z,12.41
2024-05-09T04:54:34.320Z,12.56
2024-05-09T04:57:24.108Z,12.70
2024-05-09T05:00:14.821Z,12.81
2024-05-09T05:03:12.607Z,12.88
2024-05-09T05:06:02.176Z,12.91
2024-05-09T05:08:49.272Z,13.01
2024-05-09T05:11:36.610Z,13.11
2024-05-09T05:14:24.047Z,13.21
2024-05-09T05:17:11.169Z,13.28
2024-05-09T05:20:01.768Z,13.39
2024-05-09T05:22:48.267Z,13.55
2024-05-09T05:25:35.563Z,13.74
2024-05-09T05:28:23.000Z,13.96
2024-05-09T05:31:10.029Z,14.18
2024-05-09T05:33:57.146Z,14.38
2024-05-09T05:36:44.129Z,14.58
2024-05-09T05:39:31.141Z,14.78
2024-05-09T05:42:17.877Z,14.96
2024-05-09T05:45:08.284Z,15.03
2024-05-09T05:47:57.232Z,15.01
2024-05-09T05:50:45.029Z,15.06
2024-05-09T05:53:32.201Z,15.22
2024-05-09T05:56:19.432Z,15.40
2024-05-09T05:59:06.554Z,15.57
2024-05-09T06:01:53.349Z,15.74
2024-05-09T06:04:40.491Z,15.87
2024-05-09T06:07:27.968Z,15.99
2024-05-09T06:10:21.394Z,16.09
2024-05-09T06:13:13.435Z,16.20
2024-05-09T06:16:02.006Z,16.25
2024-05-09T06:18:48.618Z,16.34
2024-05-09T06:21:35.926Z,16.46
2024-05-09T06:24:23.061Z,16.58
2024-05-09T06:27:10.576Z,16.71
2024-05-09T06:29:57.910Z,16.85
2024-05-09T06:32:44.833Z,16.95
2024-05-09T06:35:32.711Z,17.04
2024-05-09T06:38:20.221Z,17.12
2024-05-09T06:41:07.114Z,17.17
2024-05-09T06:43:54.758Z,17.23
2024-05-09T06:46:42.169Z,17.27
2024-05-09T06:49:31.469Z,17.39
2024-05-09T06:52:19.482Z,17.51
2024-05-09T06:55:07.177Z,17.63
2024-05-09T06:57:54.623Z,17.74
2024-05-09T07:00:42.480Z,17.83
2024-05-09T07:03:30.134Z,17.87
2024-05-09T07:06:17.258Z,17.75
2024-05-09T07:09:04.821Z,17.71
2024-05-09T07:11:51.813Z,17.80
2024-05-09T07:14:38.837Z,17.89
2024-05-09T07:17:27.203Z,17.85
2024-05-09T07:20:23.177Z,17.87
2024-05-09T07:23:16.027Z,17.99
2024-05-09T07:26:03.761Z,18.05
2024-05-09T07:28:50.654Z,17.99
2024-05-09T07:31:37.632Z,17.83
2024-05-09T07:34:25.054Z,17.86
2024-05-09T07:37:13.437Z,17.86
2024-05-09T07:40:00.626Z,17.82
2024-05-09T07:42:47.979Z,17.90
2024-05-09T07:50:00.456Z,18.56
2024-05-09T07:54:31.999Z,19.15
2024-05-09T07:57:19.619Z,19.29
2024-05-09T08:00:08.249Z,19.42
2024-05-09T08:02:58.979Z,19.53
2024-05-09T08:05:46.138Z,19.57
2024-05-09T08:08:33.209Z,19.52
2024-05-09T08:11:20.380Z,19.50
2024-05-09T08:14:07.311Z,19.48
2024-05-09T08:16:54.671Z,19.49
2024-05-09T08:19:41.851Z,19.46
2024-05-09T08:22:31.936Z,19.36
2024-05-09T08:25:18.775Z,19.49
2024-05-09T08:28:06.489Z,19.54
2024-05-09T08:30:53.757Z,19.59
2024-05-09T08:33:45.253Z,19.67
2024-05-09T08:36:33.406Z,19.72
2024-05-09T08:39:20.168Z,19.67
2024-05-09T08:42:08.314Z,19.74
2024-05-09T08:44:55.438Z,19.81
2024-05-09T08:47:42.849Z,19.73
2024-05-09T08:50:36.570Z,19.77
2024-05-09T08:53:26.011Z,19.88
2024-05-09T08:56:13.114Z,19.96
2024-05-09T08:59:01.356Z,20.04
2024-05-09T09:01:48.299Z,20.11
2024-05-09T09:04:35.807Z,20.18
2024-05-09T09:07:22.708Z,20.21
2024-05-09T09:10:12.989Z,20.40
2024-05-09T09:13:03.923Z,20.62
2024-05-09T09:15:52.026Z,20.52
2024-05-09T09:18:39.400Z,20.49
2024-05-09T09:21:26.856Z,20.58
2024-05-09T09:24:14.135Z,20.84
2024-05-09T09:27:01.457Z,21.05
2024-05-09T09:29:48.773Z,21.21
2024-05-09T09:32:35.797Z,21.31
2024-05-09T09:35:23.252Z,21.47
2024-05-09T09:38:10.956Z,21.72
2024-05-09T09:40:57.896Z,21.99
2024-05-09T09:43:44.577Z,22.20
2024-05-09T09:46:31.407Z,22.37
2024-05-09T09:49:18.956Z,22.40
2024-05-09T09:52:07.628Z,22.32
2024-05-09T09:54:56.392Z,22.25
2024-05-09T09:57:44.316Z,22.20
2024-05-09T10:00:33.405Z,22.05
2024-05-09T10:03:21.698Z,21.64
2024-05-09T10:06:09.581Z,21.32
2024-05-09T10:08:56.652Z,21.38
2024-05-09T10:11:49.184Z,21.53
2024-05-09T10:14:49.113Z,21.72
2024-05-09T10:17:36.539Z,21.91
2024-05-09T10:20:27.962Z,22.16
2024-05-09T10:23:27.183Z,22.49
2024-05-09T10:26:14.653Z,22.72
2024-05-09T10:29:24.006Z,22.45
2024-05-09T10:32:11.127Z,22.06
2024-05-09T10:35:07.255Z,21.98
2024-05-09T10:37:54.254Z,22.14
2024-05-09T10:40:41.609Z,22.17
2024-05-09T10:43:28.771Z,22.32
2024-05-09T10:46:16.033Z,22.58
2024-05-09T10:49:06.193Z,22.62
2024-05-09T10:51:54.783Z,22.51
2024-05-09T10:54:41.889Z,22.41
2024-05-09T10:57:37.432Z,22.46
2024-05-09T11:00:35.580Z,22.53
2024-05-09T11:03:24.716Z,22.71
2024-05-09T11:06:12.462Z,22.88
2024-05-09T11:09:00.116Z,22.89
2024-05-09T11:11:47.562Z,22.86
2024-05-09T11:14:34.853Z,22.83
2024-05-09T11:17:22.305Z,22.70
2024-05-09T11:20:16.713Z,22.60
2024-05-09T11:23:06.733Z,22.60
2024-05-09T11:25:55.290Z,22.65
2024-05-09T11:28:45.780Z,22.82
2024-05-09T11:34:20.584Z,22.94
2024-05-09T11:37:08.729Z,22.98
2024-05-09T11:39:56.122Z,23.15
2024-05-09T11:42:43.383Z,23.47
2024-05-09T11:45:30.603Z,23.70
2024-05-09T11:48:18.451Z,23.88
2024-05-09T11:51:05.690Z,23.99
2024-05-09T11:53:53.132Z,24.11
2024-05-09T11:56:40.468Z,24.12
2024-05-09T11:59:27.854Z,24.21
2024-05-09T12:02:15.020Z,24.44
2024-05-09T12:05:02.608Z,24.87
2024-05-09T12:07:53.408Z,25.24
2024-05-09T12:10:41.378Z,25.34
2024-05-09T12:13:28.736Z,25.49
2024-05-09T12:16:15.998Z,25.73
2024-05-09T12:19:03.754Z,25.92
2024-05-09T12:21:51.173Z,26.22
2024-05-09T12:24:38.436Z,26.47
2024-05-09T12:27:25.711Z,26.81
2024-05-09T12:30:20.711Z,27.30
2024-05-09T12:33:15.429Z,27.69
2024-05-09T12:36:03.239Z,27.90
2024-05-09T12:38:50.769Z,28.08
2024-05-09T12:41:37.867Z,28.06
2024-05-09T12:44:24.794Z,27.87
2024-05-09T12:47:12.322Z,27.86
2024-05-09T12:49:59.860Z,27.67
2024-05-09T12:52:46.493Z,27.58
2024-05-09T12:55:40.964Z,27.59
2024-05-09T12:58:35.837Z,27.62
2024-05-09T13:01:23.142Z,27.87
2024-05-09T13:04:10.288Z,28.21
2024-05-09T13:06:57.316Z,28.50
2024-05-09T13:09:44.029Z,28.67
2024-05-09T13:12:31.882Z,28.94
2024-05-09T13:15:19.502Z,29.34
2024-05-09T13:18:07.317Z,29.74
2024-05-09T13:20:54.648Z,30.01
2024-05-09T13:23:42.047Z,30.30
2024-05-09T13:26:28.861Z,30.47
2024-05-09T13:29:16.308Z,30.23
2024-05-09T13:32:04.115Z,29.72
2024-05-09T13:34:51.592Z,29.15
2024-05-09T13:37:38.751Z,28.74
2024-05-09T13:40:32.728Z,28.54
2024-05-09T13:43:23.103Z,28.31
2024-05-09T13:46:09.983Z,28.03
2024-05-09T13:48:57.295Z,27.91
2024-05-09T13:51:44.663Z,27.91
2024-05-09T13:54:32.144Z,27.82
2024-05-09T13:57:19.364Z,27.71
2024-05-09T14:00:12.063Z,27.65
2024-05-09T14:03:02.571Z,27.71
2024-05-09T14:05:51.948Z,28.06
2024-05-09T14:08:39.487Z,28.24
2024-05-09T14:11:27.283Z,28.29
2024-05-09T14:14:14.538Z,28.22
2024-05-09T14:17:02.019Z,27.71
2024-05-09T14:19:49.288Z,27.65
2024-05-09T14:22:36.636Z,27.68
2024-05-09T14:25:26.055Z,27.74
2024-05-09T14:28:13.771Z,28.25
2024-05-09T14:31:01.644Z,28.96
2024-05-09T14:33:49.175Z,29.70
2024-05-09T14:36:36.646Z,30.40
2024-05-09T14:39:23.528Z,30.88
2024-05-09T14:42:10.828Z,30.70
2024-05-09T14:44:57.934Z,30.10
2024-05-09T14:47:44.830Z,29.44
2024-05-09T14:50:36.737Z,29.05
2024-05-09T14:53:27.897Z,28.50
2024-05-09T14:56:15.364Z,28.31
2024-05-09T14:59:03.394Z,28.18
2024-05-09T15:01:50.852Z,27.90
2024-05-09T15:04:38.434Z,27.56
2024-05-09T15:07:25.445Z,27.05
2024-05-09T15:10:20.337Z,27.05
2024-05-09T15:13:13.238Z,26.90
2024-05-09T15:16:01.902Z,26.50
2024-05-09T15:18:49.496Z,26.15
2024-05-09T15:21:37.140Z,25.84
2024-05-09T15:24:23.900Z,25.64
2024-05-09T15:27:11.796Z,25.42
2024-05-09T15:30:01.948Z,25.10
2024-05-09T15:32:49.222Z,24.62
2024-05-09T15:35:40.883Z,24.34
2024-05-09T15:38:27.901Z,24.17
2024-05-09T15:41:15.144Z,23.94
2024-05-09T15:44:02.140Z,23.58
2024-05-09T15:46:48.970Z,23.34
2024-05-09T15:49:35.990Z,23.41
2024-05-09T15:52:23.292Z,23.33
2024-05-09T15:55:10.188Z,23.01
2024-05-09T15:57:56.832Z,22.87
2024-05-09T16:00:46.291Z,22.81
2024-05-09T16:03:35.180Z,22.87
2024-05-09T16:06:23.070Z,22.73
2024-05-09T16:09:10.233Z,22.58
2024-05-09T16:11:57.038Z,22.35
2024-05-09T16:14:45.274Z,22.14
2024-05-09T16:17:32.717Z,21.94
2024-05-09T16:20:29.942Z,21.69
2024-05-09T16:23:26.479Z,21.26
2024-05-09T16:26:13.776Z,20.99
2024-05-09T16:29:01.251Z,20.77
2024-05-09T16:31:48.331Z,20.44
2024-05-09T16:34:35.989Z,20.22
2024-05-09T16:37:24.685Z,19.90
2024-05-09T16:40:21.996Z,19.75
2024-05-09T16:43:17.209Z,19.67
2024-05-09T16:46:08.591Z,19.67
2024-05-09T16:48:55.879Z,19.62
2024-05-09T16:51:43.457Z,19.36
2024-05-09T16:54:30.375Z,19.03
2024-05-09T16:57:17.602Z,18.69
2024-05-09T17:00:09.327Z,18.38
2024-05-09T17:02:59.362Z,18.04
2024-05-09T17:05:47.740Z,17.80
2024-05-09T17:08:36.877Z,17.56
2024-05-09T17:11:24.258Z,17.29
2024-05-09T17:14:11.710Z,17.06
2024-05-09T17:16:58.679Z,16.88
2024-05-09T17:19:47.206Z,16.73
2024-05-09T17:22:34.831Z,16.59
2024-05-09T17:25:22.481Z,16.40
2024-05-09T17:28:10.448Z,16.23
2024-05-09T17:30:58.514Z,16.06
2024-05-09T17:33:45.567Z,15.91
2024-05-09T17:36:33.141Z,15.74
2024-05-09T17:39:20.222Z,15.59
2024-05-09T17:42:07.111Z,15.45
2024-05-09T17:44:54.968Z,15.33
2024-05-09T17:47:42.440Z,15.17
2024-05-09T17:53:20.037Z,14.89
2024-05-09T17:56:07.999Z,14.76
2024-05-09T17:58:55.155Z,14.63
2024-05-09T18:01:42.698Z,14.52
2024-05-09T18:04:33.291Z,14.42
2024-05-09T18:07:20.993Z,14.30
2024-05-09T18:10:16.054Z,14.17
2024-05-09T18:13:10.801Z,14.05
2024-05-09T18:15:58.750Z,13.96
2024-05-09T18:18:46.402Z,13.88
2024-05-09T18:21:33.715Z,13.80
2024-05-09T18:24:22.203Z,13.71
2024-05-09T18:27:09.379Z,13.62
2024-05-09T18:29:56.591Z,13.56
2024-05-09T18:32:43.988Z,13.48
2024-05-09T18:35:31.064Z,13.38
2024-05-09T18:38:19.082Z,13.28
2024-05-09T18:41:06.155Z,13.20
2024-05-09T18:43:54.954Z,13.10
2024-05-09T18:46:41.664Z,13.02
2024-05-09T18:49:29.292Z,12.95
2024-05-09T18:52:16.312Z,12.87
2024-05-09T18:55:04.376Z,12.79
2024-05-09T18:57:51.512Z,12.71
2024-05-09T19:00:41.323Z,12.63
2024-05-09T19:03:30.894Z,12.54
2024-05-09T19:06:21.051Z,12.46
2024-05-09T19:09:09.982Z,12.39
2024-05-09T19:12:00.420Z,12.32
2024-05-09T19:14:47.773Z,12.23
2024-05-09T19:17:34.870Z,12.17
2024-05-09T19:20:28.617Z,12.11
2024-05-09T19:23:20.564Z,12.06
2024-05-09T19:26:08.331Z,12.00
2024-05-09T19:28:55.561Z,11.93
2024-05-09T19:31:42.263Z,11.86
2024-05-09T19:34:29.560Z,11.80
2024-05-09T19:37:16.713Z,11.76
2024-05-09T19:40:06.771Z,11.70
2024-05-09T19:42:55.610Z,11.65
2024-05-09T19:45:43.343Z,11.58
2024-05-09T19:48:30.735Z,11.54
2024-05-09T19:51:18.227Z,11.49
2024-05-09T19:54:04.936Z,11.44
2024-05-09T19:56:52.260Z,11.39
2024-05-09T19:59:38.770Z,11.34
2024-05-09T20:02:25.833Z,11.29
2024-05-09T20:05:12.577Z,11.24
2024-05-09T20:08:00.049Z,11.19
2024-05-09T20:10:47.101Z,11.12
2024-05-09T20:13:34.292Z,11.08
2024-05-09T20:16:21.543Z,11.03
2024-05-09T20:19:08.528Z,11.00
2024-05-09T20:21:55.584Z,10.99
2024-05-09T20:24:42.536Z,10.98
2024-05-09T20:27:30.135Z,10.92
2024-05-09T20:30:25.316Z,10.87
2024-05-09T20:33:18.993Z,10.81
2024-05-09T20:36:06.145Z,10.76
2024-05-09T20:38:53.560Z,10.72
2024-05-09T20:41:43.758Z,10.67
2024-05-09T20:44:34.254Z,10.62
2024-05-09T20:47:21.840Z,10.57
2024-05-09T20:50:20.164Z,10.53
2024-05-09T20:53:15.644Z,10.46
2024-05-09T20:56:02.896Z,10.41
2024-05-09T20:58:49.710Z,10.36
2024-05-09T21:01:36.767Z,10.30
2024-05-09T21:04:24.109Z,10.26
2024-05-09T21:07:12.047Z,10.24
2024-05-09T21:10:02.372Z,10.24
2024-05-09T21:12:49.955Z,10.24
2024-05-09T21:15:37.183Z,10.24
2024-05-09T21:18:24.527Z,10.22
2024-05-09T21:21:11.343Z,10.18
2024-05-09T21:23:58.167Z,10.13
2024-05-09T21:26:45.289Z,10.09
2024-05-09T21:29:32.398Z,10.06
2024-05-09T21:32:20.877Z,10.02
2024-05-09T21:35:07.972Z,9.96
2024-05-09T21:37:55.135Z,9.90
2024-05-09T21:40:42.385Z,9.85
2024-05-09T21:43:31.287Z,9.79
2024-05-09T21:46:18.293Z,9.74
2024-05-09T21:49:05.346Z,9.69
2024-05-09T21:51:52.549Z,9.63
2024-05-09T21:54:38.975Z,9.59
2024-05-09T21:57:25.818Z,9.57
2024-05-09T22:00:28.177Z,9.55
2024-05-09T22:03:22.044Z,9.52
2024-05-09T22:06:08.891Z,9.49
2024-05-09T22:08:56.227Z,9.45
2024-05-09T22:11:48.060Z,9.42
2024-05-09T22:14:36.801Z,9.38
2024-05-09T22:17:24.257Z,9.35
2024-05-09T22:20:18.083Z,9.31
2024-05-09T22:23:09.519Z,9.25
2024-05-09T22:25:56.855Z,9.22
2024-05-09T22:28:44.471Z,9.18
2024-05-09T22:31:31.943Z,9.15
2024-05-09T22:34:19.164Z,9.10
2024-05-09T22:37:06.460Z,9.06
2024-05-09T22:39:53.554Z,9.03
2024-05-09T22:42:41.112Z,8.99
2024-05-09T22:45:28.602Z,8.97
2024-05-09T22:48:15.748Z,8.95
2024-05-09T22:51:03.048Z,8.89
2024-05-09T22:53:49.861Z,8.82
2024-05-09T22:56:37.095Z,8.71
2024-05-09T22:59:23.887Z,8.68
2024-05-09T23:02:10.732Z,8.68
2024-05-09T23:04:58.124Z,8.67
2024-05-09T23:07:45.439Z,8.63
2024-05-09T23:10:36.656Z,8.63
2024-05-09T23:13:25.749Z,8.58
2024-05-09T23:16:13.532Z,8.52
2024-05-09T23:19:00.780Z,8.49
2024-05-09T23:21:47.826Z,8.46
2024-05-09T23:24:35.268Z,8.43
2024-05-09T23:27:22.034Z,8.41
2024-05-09T23:30:12.431Z,8.38
2024-05-09T23:33:02.439Z,8.34
2024-05-09T23:35:52.069Z,8.32
2024-05-09T23:38:40.318Z,8.28
2024-05-09T23:41:27.144Z,8.26
2024-05-09T23:44:14.459Z,8.25
2024-05-09T23:47:05.381Z,8.25
2024-05-09T23:49:56.115Z,8.25
2024-05-09T23:52:46.360Z,8.24
2024-05-09T23:55:36.527Z,8.25
2024-05-09T23:58:23.795Z,8.20
